createdAt,value
2018-11-29T00:00:48.695Z,1021.93
2018-11-29T00:01:48.684Z,1021.87
2018-11-29T00:02:48.703Z,1021.92
2018-11-29T00:03:48.669Z,1021.86
2018-11-29T00:04:48.659Z,1021.82
2018-11-29T00:05:48.643Z,1021.79
2018-11-29T00:06:48.627Z,1021.75
2018-11-29T00:07:48.615Z,1021.79
2018-11-29T00:08:48.621Z,1021.81
2018-11-29T00:09:48.602Z,1021.72
2018-11-29T00:10:50.310Z,1021.78
2018-11-29T00:11:48.573Z,1021.78
2018-11-29T00:12:48.567Z,1021.78
2018-11-29T00:13:48.563Z,1021.77
2018-11-29T00:14:48.544Z,1021.84
2018-11-29T00:15:48.533Z,1021.76
2018-11-29T00:18:26.146Z,1021.69
2018-11-29T00:19:31.240Z,1021.67
2018-11-29T00:20:26.112Z,1021.69
2018-11-29T00:21:26.091Z,1021.71
2018-11-29T00:22:26.081Z,1021.64
2018-11-29T00:23:26.088Z,1021.76
2018-11-29T00:24:26.067Z,1021.71
2018-11-29T00:25:26.058Z,1021.83
2018-11-29T00:26:26.048Z,1021.70
2018-11-29T00:27:34.039Z,1021.72
2018-11-29T00:28:26.042Z,1021.67
2018-11-29T00:29:26.016Z,1021.70
2018-11-29T00:30:25.996Z,1021.69
2018-11-29T00:31:26.010Z,1021.68
2018-11-29T00:32:25.974Z,1021.70
2018-11-29T00:33:26.034Z,1021.76
2018-11-29T00:34:25.958Z,1021.67
2018-11-29T00:35:25.940Z,1021.66
2018-11-29T00:36:25.954Z,1021.61
2018-11-29T00:37:25.940Z,1021.58
2018-11-29T00:38:25.949Z,1021.80
2018-11-29T00:39:25.914Z,1021.56
2018-11-29T00:40:25.897Z,1021.74
2018-11-29T00:41:25.886Z,1021.71
2018-11-29T00:42:25.906Z,1021.69
2018-11-29T00:43:25.897Z,1021.66
2018-11-29T00:44:25.859Z,1021.71
2018-11-29T00:45:25.864Z,1021.66
2018-11-29T00:46:25.830Z,1021.54
2018-11-29T00:47:25.871Z,1021.47
2018-11-29T00:48:25.806Z,1021.67
2018-11-29T00:49:25.815Z,1021.61
2018-11-29T00:50:25.779Z,1021.49
2018-11-29T00:51:25.776Z,1021.61
2018-11-29T00:52:25.778Z,1021.59
2018-11-29T00:53:25.786Z,1021.65
2018-11-29T00:54:32.792Z,1021.62
2018-11-29T00:55:25.720Z,1021.65
2018-11-29T00:56:25.711Z,1021.65
2018-11-29T00:57:25.696Z,1021.69
2018-11-29T00:58:25.689Z,1021.74
2018-11-29T00:59:25.726Z,1021.73
2018-11-29T01:00:25.673Z,1021.72
2018-11-29T01:01:25.657Z,1021.71
2018-11-29T01:02:25.647Z,1021.67
2018-11-29T01:03:25.631Z,1021.65
2018-11-29T01:04:26.563Z,1021.71
2018-11-29T01:05:25.612Z,1021.61
2018-11-29T01:06:25.649Z,1021.60
2018-11-29T01:07:25.603Z,1021.62
2018-11-29T01:08:25.689Z,1021.68
2018-11-29T01:09:26.630Z,1021.72
2018-11-29T01:10:25.574Z,1021.51
2018-11-29T01:11:25.566Z,1021.56
2018-11-29T01:12:25.560Z,1021.64
2018-11-29T01:13:25.550Z,1021.69
2018-11-29T01:14:25.551Z,1021.58
2018-11-29T01:15:25.519Z,1021.58
2018-11-29T01:16:25.565Z,1021.61
2018-11-29T01:17:25.512Z,1021.74
2018-11-29T01:18:32.484Z,1021.65
2018-11-29T01:19:25.461Z,1021.59
2018-11-29T01:20:25.464Z,1021.56
2018-11-29T01:21:25.437Z,1021.54
2018-11-29T01:22:25.429Z,1021.56
2018-11-29T01:23:25.426Z,1021.51
2018-11-29T01:24:25.399Z,1021.65
2018-11-29T01:25:25.422Z,1021.61
2018-11-29T01:26:25.380Z,1021.58
2018-11-29T01:27:25.396Z,1021.55
2018-11-29T01:28:25.353Z,1021.60
2018-11-29T01:29:25.351Z,1021.58
2018-11-29T01:30:25.347Z,1021.56
2018-11-29T01:31:25.336Z,1021.51
2018-11-29T01:32:25.319Z,1021.46
2018-11-29T01:33:25.303Z,1021.50
2018-11-29T01:34:25.299Z,1021.53
2018-11-29T01:35:25.309Z,1021.49
2018-11-29T01:36:25.320Z,1021.46
2018-11-29T01:37:25.269Z,1021.41
2018-11-29T01:38:25.264Z,1021.36
2018-11-29T01:39:25.250Z,1021.28
2018-11-29T01:40:25.253Z,1021.22
2018-11-29T01:41:25.227Z,1021.13
2018-11-29T01:42:25.225Z,1021.18
2018-11-29T01:43:25.212Z,1021.12
2018-11-29T01:44:25.185Z,1021.10
2018-11-29T01:45:25.190Z,1021.12
2018-11-29T01:46:25.233Z,1021.27
2018-11-29T01:47:25.152Z,1021.16
2018-11-29T01:48:25.143Z,1021.23
2018-11-29T01:49:25.133Z,1021.11
2018-11-29T01:50:25.162Z,1021.18
2018-11-29T01:51:26.111Z,1021.18
2018-11-29T01:52:25.121Z,1021.20
2018-11-29T01:53:25.091Z,1021.19
2018-11-29T01:54:25.079Z,1021.18
2018-11-29T01:55:25.077Z,1021.10
2018-11-29T01:56:25.068Z,1021.05
2018-11-29T01:57:25.061Z,1021.05
2018-11-29T01:58:25.036Z,1021.06
2018-11-29T01:59:25.643Z,1020.92
2018-11-29T02:00:25.017Z,1020.99
2018-11-29T02:01:25.033Z,1020.99
2018-11-29T02:02:25.001Z,1021.08
2018-11-29T02:03:25.022Z,1021.03
2018-11-29T02:04:24.992Z,1021.03
2018-11-29T02:05:24.966Z,1020.91
2018-11-29T02:06:24.973Z,1020.90
2018-11-29T02:07:24.976Z,1020.85
2018-11-29T02:08:24.942Z,1020.87
2018-11-29T02:09:24.913Z,1020.84
2018-11-29T02:10:24.921Z,1020.83
2018-11-29T02:11:24.902Z,1020.76
2018-11-29T02:12:24.910Z,1020.76
2018-11-29T02:13:24.885Z,1020.73
2018-11-29T02:14:24.886Z,1020.81
2018-11-29T02:15:24.846Z,1020.78
2018-11-29T02:16:24.853Z,1020.70
2018-11-29T02:17:24.827Z,1020.66
2018-11-29T02:18:24.834Z,1020.68
2018-11-29T02:19:24.810Z,1020.77
2018-11-29T02:20:24.792Z,1020.60
2018-11-29T02:21:26.646Z,1020.67
2018-11-29T02:22:24.774Z,1020.75
2018-11-29T02:23:24.757Z,1020.62
2018-11-29T02:24:24.748Z,1020.63
2018-11-29T02:25:24.845Z,1020.59
2018-11-29T02:26:24.847Z,1020.64
2018-11-29T02:27:24.830Z,1020.65
2018-11-29T02:28:24.700Z,1020.47
2018-11-29T02:29:24.712Z,1020.55
2018-11-29T02:30:24.700Z,1020.58
2018-11-29T02:31:24.673Z,1020.50
2018-11-29T02:32:24.704Z,1020.52
2018-11-29T02:33:24.659Z,1020.59
2018-11-29T02:34:24.679Z,1020.48
2018-11-29T02:35:24.653Z,1020.48
2018-11-29T02:36:24.639Z,1020.54
2018-11-29T02:37:24.625Z,1020.52
2018-11-29T02:38:24.595Z,1020.52
2018-11-29T02:39:24.586Z,1020.57
2018-11-29T02:40:24.593Z,1020.60
2018-11-29T02:41:24.556Z,1020.63
2018-11-29T02:42:24.618Z,1020.55
2018-11-29T02:43:24.537Z,1020.53
2018-11-29T02:44:24.528Z,1020.53
2018-11-29T02:45:24.521Z,1020.53
2018-11-29T02:46:24.499Z,1020.53
2018-11-29T02:47:24.502Z,1020.54
2018-11-29T02:48:24.483Z,1020.60
2018-11-29T02:49:24.468Z,1020.58
2018-11-29T02:50:24.454Z,1020.70
2018-11-29T02:51:24.450Z,1020.65
2018-11-29T02:52:24.446Z,1020.68
2018-11-29T02:53:24.427Z,1020.65
2018-11-29T02:54:24.411Z,1020.62
2018-11-29T02:55:24.404Z,1020.72
2018-11-29T02:56:24.400Z,1020.71
2018-11-29T02:57:24.379Z,1020.72
2018-11-29T02:58:24.386Z,1020.66
2018-11-29T02:59:24.387Z,1020.70
2018-11-29T03:04:46.077Z,1020.53
2018-11-29T03:06:58.413Z,1020.51
2018-11-29T03:07:58.378Z,1020.49
2018-11-29T03:08:58.348Z,1020.60
2018-11-29T03:09:58.333Z,1020.41
2018-11-29T03:10:58.318Z,1020.47
2018-11-29T03:11:58.310Z,1020.43
2018-11-29T03:12:58.319Z,1020.49
2018-11-29T03:13:58.287Z,1020.37
2018-11-29T03:14:58.294Z,1020.43
2018-11-29T03:15:58.265Z,1020.44
2018-11-29T03:16:58.249Z,1020.37
2018-11-29T03:17:58.258Z,1020.46
2018-11-29T03:18:58.228Z,1020.44
2018-11-29T03:19:58.217Z,1020.52
2018-11-29T03:20:58.242Z,1020.44
2018-11-29T03:21:58.201Z,1020.43
2018-11-29T03:22:58.218Z,1020.41
2018-11-29T03:23:58.184Z,1020.41
2018-11-29T03:24:58.174Z,1020.47
2018-11-29T03:25:58.172Z,1020.48
2018-11-29T03:26:58.148Z,1020.44
2018-11-29T03:27:58.143Z,1020.49
2018-11-29T03:28:58.166Z,1020.47
2018-11-29T03:29:58.154Z,1020.36
2018-11-29T03:30:58.104Z,1020.45
2018-11-29T03:31:58.131Z,1020.42
2018-11-29T03:32:58.084Z,1020.52
2018-11-29T03:33:58.085Z,1020.55
2018-11-29T03:34:58.057Z,1020.57
2018-11-29T03:35:58.071Z,1020.55
2018-11-29T03:36:58.083Z,1020.51
2018-11-29T03:37:58.035Z,1020.50
2018-11-29T03:38:58.026Z,1020.51
2018-11-29T03:39:58.008Z,1020.55
2018-11-29T03:40:57.996Z,1020.46
2018-11-29T03:41:57.991Z,1020.45
2018-11-29T03:42:57.981Z,1020.55
2018-11-29T03:43:57.972Z,1020.45
2018-11-29T03:44:57.977Z,1020.43
2018-11-29T03:45:57.941Z,1020.48
2018-11-29T03:46:57.951Z,1020.50
2018-11-29T03:47:57.920Z,1020.51
2018-11-29T03:48:57.941Z,1020.50
2018-11-29T03:49:57.897Z,1020.47
2018-11-29T03:50:57.936Z,1020.45
2018-11-29T03:51:57.872Z,1020.47
2018-11-29T03:52:57.862Z,1020.52
2018-11-29T03:53:57.885Z,1020.57
2018-11-29T03:54:57.841Z,1020.38
2018-11-29T03:55:57.833Z,1020.39
2018-11-29T03:56:57.819Z,1020.38
2018-11-29T03:57:57.807Z,1020.44
2018-11-29T03:58:57.796Z,1020.33
2018-11-29T03:59:57.797Z,1020.38
2018-11-29T04:00:57.779Z,1020.37
2018-11-29T04:01:57.770Z,1020.41
2018-11-29T04:02:57.751Z,1020.47
2018-11-29T04:03:57.771Z,1020.41
2018-11-29T04:04:57.748Z,1020.45
2018-11-29T04:05:57.725Z,1020.42
2018-11-29T04:06:57.727Z,1020.47
2018-11-29T04:07:57.700Z,1020.42
2018-11-29T04:08:57.689Z,1020.39
2018-11-29T04:09:57.688Z,1020.36
2018-11-29T04:10:57.680Z,1020.44
2018-11-29T04:11:57.652Z,1020.41
2018-11-29T04:12:57.646Z,1020.34
2018-11-29T04:13:57.635Z,1020.32
2018-11-29T04:14:57.651Z,1020.29
2018-11-29T04:15:57.606Z,1020.29
2018-11-29T04:16:57.606Z,1020.31
2018-11-29T04:17:57.604Z,1020.35
2018-11-29T04:18:57.576Z,1020.28
2018-11-29T04:19:57.622Z,1020.32
2018-11-29T04:20:57.697Z,1020.24
2018-11-29T04:21:58.129Z,1020.31
2018-11-29T04:22:57.564Z,1020.33
2018-11-29T04:23:57.562Z,1020.31
2018-11-29T04:24:57.526Z,1020.30
2018-11-29T04:25:57.526Z,1020.29
2018-11-29T04:26:57.486Z,1020.35
2018-11-29T04:27:57.533Z,1020.31
2018-11-29T04:28:57.534Z,1020.34
2018-11-29T04:29:57.507Z,1020.37
2018-11-29T04:30:58.188Z,1020.40
2018-11-29T04:31:58.463Z,1020.47
2018-11-29T04:32:57.680Z,1020.35
2018-11-29T04:35:13.409Z,1020.36
2018-11-29T04:36:14.119Z,1020.42
2018-11-29T04:37:13.097Z,1020.62
2018-11-29T04:38:13.084Z,1020.41
2018-11-29T04:39:13.083Z,1020.42
2018-11-29T04:40:13.062Z,1020.41
2018-11-29T04:41:13.068Z,1020.34
2018-11-29T04:42:13.043Z,1020.32
2018-11-29T04:43:13.069Z,1020.33
2018-11-29T04:44:13.018Z,1020.29
2018-11-29T04:45:13.010Z,1020.37
2018-11-29T04:46:13.013Z,1020.23
2018-11-29T04:47:12.987Z,1020.31
2018-11-29T04:48:12.975Z,1020.20
2018-11-29T04:49:12.967Z,1020.21
2018-11-29T04:50:12.956Z,1020.10
2018-11-29T04:51:12.960Z,1020.11
2018-11-29T04:52:12.935Z,1020.13
2018-11-29T04:53:12.921Z,1020.04
2018-11-29T04:54:13.001Z,1020.10
2018-11-29T04:55:12.900Z,1020.15
2018-11-29T04:56:12.900Z,1020.10
2018-11-29T04:57:12.875Z,1020.10
2018-11-29T04:58:12.868Z,1020.16
2018-11-29T04:59:12.894Z,1020.15
2018-11-29T05:00:12.863Z,1020.06
2018-11-29T05:01:12.842Z,1020.08
2018-11-29T05:02:12.828Z,1020.14
2018-11-29T05:03:12.809Z,1020.16
2018-11-29T05:04:12.799Z,1020.01
2018-11-29T05:05:23.491Z,1020.09
2018-11-29T05:06:12.794Z,1020.06
2018-11-29T05:07:12.767Z,1020.06
2018-11-29T05:08:12.752Z,1020.13
2018-11-29T05:09:21.496Z,1020.09
2018-11-29T05:10:20.747Z,1020.10
2018-11-29T05:11:12.934Z,1020.04
2018-11-29T05:12:12.743Z,1020.02
2018-11-29T05:13:12.699Z,1019.92
2018-11-29T05:14:12.688Z,1019.92
2018-11-29T05:15:12.704Z,1019.93
2018-11-29T05:16:12.697Z,1019.90
2018-11-29T05:17:12.665Z,1019.95
2018-11-29T05:18:12.645Z,1019.99
2018-11-29T05:19:12.632Z,1019.89
2018-11-29T05:20:12.630Z,1019.87
2018-11-29T05:21:12.612Z,1019.86
2018-11-29T05:22:12.616Z,1019.86
2018-11-29T05:23:12.591Z,1019.76
2018-11-29T05:24:12.577Z,1019.89
2018-11-29T05:25:12.571Z,1019.79
2018-11-29T05:26:12.558Z,1019.86
2018-11-29T05:27:12.557Z,1019.79
2018-11-29T05:28:12.540Z,1019.86
2018-11-29T05:29:20.588Z,1019.75
2018-11-29T05:30:12.514Z,1019.95
2018-11-29T05:31:21.476Z,1019.79
2018-11-29T05:32:12.514Z,1019.79
2018-11-29T05:33:12.479Z,1019.87
2018-11-29T05:34:12.464Z,1019.72
2018-11-29T05:35:12.451Z,1019.78
2018-11-29T05:36:12.451Z,1020.02
2018-11-29T05:37:22.516Z,1019.85
2018-11-29T05:38:12.422Z,1019.89
2018-11-29T05:39:12.408Z,1019.86
2018-11-29T05:40:20.440Z,1019.84
2018-11-29T05:41:12.391Z,1019.95
2018-11-29T05:42:12.388Z,1019.92
2018-11-29T05:43:12.378Z,1019.84
2018-11-29T05:44:20.388Z,1019.75
2018-11-29T05:45:15.156Z,1019.84
2018-11-29T05:46:20.356Z,1020.07
2018-11-29T05:47:12.323Z,1019.85
2018-11-29T05:48:12.339Z,1019.87
2018-11-29T05:49:12.299Z,1019.99
2018-11-29T05:50:21.013Z,1019.87
2018-11-29T05:51:12.286Z,1019.93
2018-11-29T05:52:22.845Z,1019.94
2018-11-29T05:53:12.286Z,1020.03
2018-11-29T05:54:12.250Z,1020.03
2018-11-29T05:55:12.276Z,1020.03
2018-11-29T05:56:12.254Z,1020.01
2018-11-29T05:57:12.209Z,1019.83
2018-11-29T05:58:13.174Z,1019.98
2018-11-29T05:59:12.194Z,1020.00
2018-11-29T06:00:12.173Z,1019.98
2018-11-29T06:01:12.168Z,1019.91
2018-11-29T06:02:12.159Z,1019.98
2018-11-29T06:03:12.205Z,1020.10
2018-11-29T06:04:12.132Z,1019.83
2018-11-29T06:05:12.120Z,1019.83
2018-11-29T06:06:12.109Z,1019.87
2018-11-29T06:07:12.106Z,1019.81
2018-11-29T06:08:12.100Z,1019.80
2018-11-29T06:09:12.079Z,1019.85
2018-11-29T06:10:12.069Z,1019.71
2018-11-29T06:11:12.059Z,1019.78
2018-11-29T06:12:12.042Z,1019.74
2018-11-29T06:13:12.050Z,1019.65
2018-11-29T06:14:12.021Z,1019.59
2018-11-29T06:15:12.009Z,1019.57
2018-11-29T06:16:12.004Z,1019.67
2018-11-29T06:17:11.990Z,1019.64
2018-11-29T06:18:11.989Z,1019.62
2018-11-29T06:19:11.965Z,1019.69
2018-11-29T06:20:11.952Z,1019.69
2018-11-29T06:21:11.942Z,1019.65
2018-11-29T06:22:11.930Z,1019.74
2018-11-29T06:23:11.934Z,1019.69
2018-11-29T06:24:13.644Z,1019.78
2018-11-29T06:25:11.908Z,1019.80
2018-11-29T06:26:11.889Z,1019.72
2018-11-29T06:27:11.896Z,1019.73
2018-11-29T06:28:11.883Z,1019.81
2018-11-29T06:29:11.854Z,1019.80
2018-11-29T06:30:11.858Z,1019.76
2018-11-29T06:31:11.837Z,1019.84
2018-11-29T06:32:11.823Z,1019.89
2018-11-29T06:33:11.841Z,1019.90
2018-11-29T06:34:11.799Z,1019.85
2018-11-29T06:35:11.793Z,1019.94
2018-11-29T06:36:12.719Z,1019.69
2018-11-29T06:37:11.792Z,1019.65
2018-11-29T06:38:11.765Z,1019.72
2018-11-29T06:39:11.771Z,1019.80
2018-11-29T06:40:11.754Z,1019.63
2018-11-29T06:41:11.736Z,1019.56
2018-11-29T06:42:11.725Z,1019.55
2018-11-29T06:43:11.716Z,1019.64
2018-11-29T06:44:11.745Z,1019.66
2018-11-29T06:45:11.712Z,1019.57
2018-11-29T06:46:11.676Z,1019.51
2018-11-29T06:47:11.751Z,1019.62
2018-11-29T06:48:11.670Z,1019.81
2018-11-29T06:49:12.627Z,1019.64
2018-11-29T06:50:11.664Z,1019.61
2018-11-29T06:51:11.640Z,1019.58
2018-11-29T06:52:11.639Z,1019.67
2018-11-29T06:53:11.619Z,1019.51
2018-11-29T06:54:11.645Z,1019.49
2018-11-29T06:55:11.589Z,1019.46
2018-11-29T06:56:18.623Z,1019.58
2018-11-29T06:57:12.549Z,1019.60
2018-11-29T06:58:11.544Z,1019.53
2018-11-29T06:59:11.754Z,1019.59
2018-11-29T07:02:17.325Z,1019.73
2018-11-29T07:05:11.137Z,1019.65
2018-11-29T07:08:23.585Z,1019.63
2018-11-29T07:09:21.004Z,1019.63
2018-11-29T07:12:22.659Z,1019.59
2018-11-29T07:13:22.393Z,1019.62
2018-11-29T07:14:21.543Z,1019.64
2018-11-29T07:17:21.260Z,1019.62
2018-11-29T07:18:21.121Z,1019.57
2018-11-29T07:20:31.933Z,1019.67
2018-11-29T07:23:22.200Z,1019.59
2018-11-29T07:38:52.063Z,1019.54
2018-11-29T07:43:13.513Z,1019.71
2018-11-29T08:32:53.202Z,1019.15
2018-11-29T08:45:44.085Z,1018.99
2018-11-29T08:48:14.430Z,1019.01
2018-11-29T08:49:12.705Z,1019.01
2018-11-29T08:50:12.489Z,1019.04
2018-11-29T08:54:13.698Z,1019.18
2018-11-29T08:56:30.212Z,1019.17
2018-11-29T08:59:40.737Z,1019.12
2018-11-29T09:00:40.639Z,1019.11
2018-11-29T09:03:51.044Z,1019.00
2018-11-29T09:04:51.654Z,1019.03
2018-11-29T09:05:50.953Z,1019.02
2018-11-29T09:06:50.937Z,1018.95
2018-11-29T09:09:51.714Z,1018.99
2018-11-29T09:10:51.455Z,1018.94
2018-11-29T09:11:51.532Z,1019.03
2018-11-29T09:14:52.326Z,1018.96
2018-11-29T09:15:52.101Z,1018.98
2018-11-29T09:24:14.382Z,1019.02
2018-11-29T09:27:13.215Z,1019.06
2018-11-29T09:32:28.702Z,1018.79
2018-11-29T09:34:57.579Z,1018.73
2018-11-29T10:33:13.559Z,1017.89
2018-11-29T10:42:02.911Z,1017.73
2018-11-29T10:45:00.696Z,1017.59
2018-11-29T10:48:11.447Z,1017.63
2018-11-29T10:49:11.195Z,1017.49
2018-11-29T10:52:10.963Z,1017.65
2018-11-29T10:53:10.730Z,1017.52
2018-11-29T10:54:25.267Z,1017.49
2018-11-29T10:57:21.197Z,1017.66
2018-11-29T11:00:21.993Z,1017.55
2018-11-29T11:01:21.425Z,1017.55
2018-11-29T11:02:21.388Z,1017.60
2018-11-29T11:07:32.167Z,1017.51
2018-11-29T11:10:23.089Z,1017.50
2018-11-29T11:13:21.549Z,1017.37
2018-11-29T11:14:21.434Z,1017.33
2018-11-29T11:23:34.311Z,1017.24
2018-11-29T11:36:29.168Z,1017.40
2018-11-29T11:38:52.538Z,1017.34
2018-11-29T11:39:52.466Z,1017.35
2018-11-29T12:43:44.344Z,1016.72
2018-11-29T12:44:45.175Z,1016.80
2018-11-29T12:45:52.197Z,1016.90
2018-11-29T12:46:44.180Z,1016.70
2018-11-29T12:47:44.151Z,1016.55
2018-11-29T12:48:44.138Z,1016.74
2018-11-29T12:49:44.171Z,1016.51
2018-11-29T12:50:44.101Z,1016.46
2018-11-29T12:51:44.096Z,1016.34
2018-11-29T12:52:45.014Z,1016.30
2018-11-29T12:53:44.171Z,1016.21
2018-11-29T12:59:53.449Z,1016.42
2018-11-29T13:00:52.637Z,1016.22
2018-11-29T13:04:04.237Z,1016.26
2018-11-29T13:05:04.199Z,1016.19
2018-11-29T13:07:53.373Z,1016.15
2018-11-29T13:08:52.713Z,1016.23
2018-11-29T13:10:00.679Z,1016.32
2018-11-29T13:12:52.198Z,1016.09
2018-11-29T13:15:13.472Z,1016.18
2018-11-29T13:16:13.416Z,1016.17
2018-11-29T13:18:41.870Z,1016.23
2018-11-29T13:19:41.621Z,1016.12
2018-11-29T13:20:41.812Z,1016.21
2018-11-29T13:25:25.029Z,1016.20
2018-11-29T13:26:24.392Z,1016.15
2018-11-29T13:29:14.530Z,1016.19
2018-11-29T13:30:14.428Z,1016.15
2018-11-29T13:31:13.966Z,1016.19
2018-11-29T13:32:13.973Z,1016.08
2018-11-29T13:33:15.880Z,1016.09
2018-11-29T13:36:17.029Z,1016.04
2018-11-29T13:39:03.633Z,1016.08
2018-11-29T13:40:03.533Z,1016.10
2018-11-29T13:41:03.367Z,1016.08
2018-11-29T13:44:03.458Z,1016.03
2018-11-29T13:45:02.867Z,1016.00
2018-11-29T13:48:02.384Z,1015.96
2018-11-29T13:49:02.260Z,1015.89
2018-11-29T13:50:02.285Z,1016.00
2018-11-29T13:51:13.380Z,1015.98
2018-11-29T13:53:41.466Z,1015.96
2018-11-29T13:57:04.779Z,1015.78
2018-11-29T13:58:03.806Z,1015.81
2018-11-29T13:59:03.798Z,1015.81
2018-11-29T14:01:53.433Z,1015.71
2018-11-29T14:04:21.277Z,1015.66
2018-11-29T14:05:34.148Z,1015.62
2018-11-29T14:06:28.598Z,1015.44
2018-11-29T14:10:28.286Z,1015.56
2018-11-29T14:11:22.840Z,1015.58
2018-11-29T14:12:12.770Z,1015.59
2018-11-29T14:13:13.693Z,1015.54
2018-11-29T14:14:12.804Z,1015.62
2018-11-29T14:16:31.323Z,1015.70
2018-11-29T14:17:43.351Z,1015.53
2018-11-29T14:18:31.272Z,1015.56
2018-11-29T14:19:31.260Z,1015.51
2018-11-29T14:20:39.965Z,1015.53
2018-11-29T14:21:39.314Z,1015.32
2018-11-29T14:22:31.236Z,1015.33
2018-11-29T14:24:42.274Z,1015.46
2018-11-29T14:25:52.347Z,1015.50
2018-11-29T14:26:42.266Z,1015.47
2018-11-29T14:27:51.802Z,1015.47
2018-11-29T14:28:50.285Z,1015.46
2018-11-29T14:29:42.201Z,1015.54
2018-11-29T14:32:10.694Z,1015.58
2018-11-29T14:33:17.655Z,1015.59
2018-11-29T14:34:21.011Z,1015.60
2018-11-29T14:35:23.472Z,1015.68
2018-11-29T14:36:23.586Z,1015.74
2018-11-29T14:37:19.391Z,1015.83
2018-11-29T14:38:18.598Z,1015.79
2018-11-29T14:39:18.228Z,1015.77
2018-11-29T14:40:19.162Z,1015.77
2018-11-29T14:41:18.518Z,1015.79
2018-11-29T14:43:28.796Z,1015.69
2018-11-29T14:44:35.823Z,1015.70
2018-11-29T14:45:35.774Z,1015.66
2018-11-29T14:46:37.501Z,1015.74
2018-11-29T14:47:35.812Z,1015.58
2018-11-29T14:48:28.713Z,1015.53
2018-11-29T14:49:35.881Z,1015.56
2018-11-29T14:50:36.788Z,1015.53
2018-11-29T14:51:28.713Z,1015.59
2018-11-29T14:52:35.727Z,1015.45
2018-11-29T14:53:35.720Z,1015.44
2018-11-29T14:54:35.681Z,1015.44
2018-11-29T14:55:37.741Z,1015.52
2018-11-29T14:56:35.664Z,1015.56
2018-11-29T14:57:35.862Z,1015.51
2018-11-29T14:58:35.930Z,1015.53
2018-11-29T14:59:36.384Z,1015.51
2018-11-29T15:00:28.582Z,1015.51
2018-11-29T15:01:28.594Z,1015.58
2018-11-29T15:02:28.598Z,1015.66
2018-11-29T15:03:35.609Z,1015.56
2018-11-29T15:04:28.541Z,1015.52
2018-11-29T15:05:28.522Z,1015.55
2018-11-29T15:06:28.576Z,1015.54
2018-11-29T15:07:29.413Z,1015.54
2018-11-29T15:08:28.508Z,1015.60
2018-11-29T15:09:28.480Z,1015.59
2018-11-29T15:10:28.469Z,1015.58
2018-11-29T15:11:29.369Z,1015.51
2018-11-29T15:12:28.450Z,1015.50
2018-11-29T15:13:28.447Z,1015.45
2018-11-29T15:14:28.433Z,1015.44
2018-11-29T15:15:28.410Z,1015.44
2018-11-29T15:16:28.402Z,1015.44
2018-11-29T15:17:28.387Z,1015.45
2018-11-29T15:18:28.392Z,1015.47
2018-11-29T15:19:28.372Z,1015.51
2018-11-29T15:20:28.357Z,1015.54
2018-11-29T15:21:28.341Z,1015.52
2018-11-29T15:22:28.329Z,1015.47
2018-11-29T15:23:28.373Z,1015.53
2018-11-29T15:24:28.315Z,1015.53
2018-11-29T15:25:28.298Z,1015.50
2018-11-29T15:26:28.285Z,1015.55
2018-11-29T15:27:28.280Z,1015.49
2018-11-29T15:28:28.275Z,1015.47
2018-11-29T15:29:28.254Z,1015.46
2018-11-29T15:30:28.245Z,1015.43
2018-11-29T15:31:28.228Z,1015.43
2018-11-29T15:32:28.218Z,1015.43
2018-11-29T15:33:28.223Z,1015.41
2018-11-29T15:34:28.194Z,1015.45
2018-11-29T15:35:28.190Z,1015.48
2018-11-29T15:36:28.176Z,1015.61
2018-11-29T15:37:28.162Z,1015.49
2018-11-29T15:38:28.160Z,1015.46
2018-11-29T15:39:28.135Z,1015.50
2018-11-29T15:40:28.126Z,1015.48
2018-11-29T15:41:28.116Z,1015.43
2018-11-29T15:42:28.104Z,1015.51
2018-11-29T15:43:28.141Z,1015.43
2018-11-29T15:44:28.081Z,1015.47
2018-11-29T15:45:28.069Z,1015.51
2018-11-29T15:46:28.065Z,1015.54
2018-11-29T15:47:28.047Z,1015.56
2018-11-29T15:48:28.040Z,1015.69
2018-11-29T15:49:28.039Z,1015.56
2018-11-29T15:50:28.014Z,1015.55
2018-11-29T15:51:28.003Z,1015.47
2018-11-29T15:52:27.997Z,1015.50
2018-11-29T15:53:27.981Z,1015.46
2018-11-29T15:54:27.979Z,1015.49
2018-11-29T15:55:27.955Z,1015.48
2018-11-29T15:56:27.946Z,1015.44
2018-11-29T15:57:27.939Z,1015.47
2018-11-29T15:58:27.926Z,1015.46
2018-11-29T15:59:27.927Z,1015.51
2018-11-29T16:00:27.900Z,1015.49
2018-11-29T16:01:27.888Z,1015.46
2018-11-29T16:02:28.055Z,1015.52
2018-11-29T16:03:28.615Z,1015.65
2018-11-29T16:04:30.683Z,1015.56
2018-11-29T16:05:27.916Z,1015.54
2018-11-29T16:06:28.851Z,1015.47
2018-11-29T16:07:27.868Z,1015.60
2018-11-29T16:08:27.929Z,1015.46
2018-11-29T16:09:27.816Z,1015.51
2018-11-29T16:10:27.809Z,1015.44
2018-11-29T16:11:27.779Z,1015.62
2018-11-29T16:12:27.769Z,1015.50
2018-11-29T16:13:27.753Z,1015.47
2018-11-29T16:14:27.773Z,1015.51
2018-11-29T16:15:27.738Z,1015.71
2018-11-29T16:16:27.728Z,1015.55
2018-11-29T16:17:27.710Z,1015.58
2018-11-29T16:18:27.697Z,1015.55
2018-11-29T16:19:27.689Z,1015.62
2018-11-29T16:20:27.686Z,1015.57
2018-11-29T16:21:27.663Z,1015.50
2018-11-29T16:22:27.651Z,1015.60
2018-11-29T16:23:27.641Z,1015.45
2018-11-29T16:24:27.633Z,1015.66
2018-11-29T16:25:27.629Z,1015.47
2018-11-29T16:26:27.619Z,1015.49
2018-11-29T16:27:27.594Z,1015.45
2018-11-29T16:28:27.583Z,1015.36
2018-11-29T16:29:27.572Z,1015.35
2018-11-29T16:30:27.579Z,1015.40
2018-11-29T16:31:27.556Z,1015.37
2018-11-29T16:32:27.566Z,1015.41
2018-11-29T16:33:27.529Z,1015.40
2018-11-29T16:34:27.516Z,1015.30
2018-11-29T16:35:27.515Z,1015.36
2018-11-29T16:36:27.500Z,1015.39
2018-11-29T16:37:27.484Z,1015.33
2018-11-29T16:38:27.472Z,1015.39
2018-11-29T16:39:27.460Z,1015.40
2018-11-29T16:40:27.462Z,1015.35
2018-11-29T16:41:27.441Z,1015.41
2018-11-29T16:42:27.438Z,1015.35
2018-11-29T16:43:27.451Z,1015.34
2018-11-29T16:44:27.405Z,1015.30
2018-11-29T16:45:27.417Z,1015.30
2018-11-29T16:46:27.388Z,1015.21
2018-11-29T16:47:27.376Z,1015.21
2018-11-29T16:48:27.379Z,1015.19
2018-11-29T16:49:27.366Z,1015.20
2018-11-29T16:50:27.381Z,1015.20
2018-11-29T16:51:27.359Z,1015.13
2018-11-29T16:52:27.327Z,1015.04
2018-11-29T16:53:27.323Z,1015.01
2018-11-29T16:54:27.311Z,1015.21
2018-11-29T16:55:27.310Z,1015.01
2018-11-29T16:56:27.278Z,1015.03
2018-11-29T16:57:27.271Z,1015.02
2018-11-29T16:58:27.262Z,1014.83
2018-11-29T16:59:27.255Z,1014.96
2018-11-29T17:00:27.309Z,1014.95
2018-11-29T17:01:27.254Z,1015.03
2018-11-29T17:02:27.284Z,1015.04
2018-11-29T17:03:27.247Z,1014.95
2018-11-29T17:04:27.202Z,1014.94
2018-11-29T17:05:27.208Z,1014.86
2018-11-29T17:06:27.175Z,1014.67
2018-11-29T17:07:27.218Z,1014.82
2018-11-29T17:08:27.210Z,1014.77
2018-11-29T17:09:27.883Z,1014.75
2018-11-29T17:10:27.186Z,1014.79
2018-11-29T17:11:27.156Z,1014.87
2018-11-29T17:12:27.109Z,1014.83
2018-11-29T17:13:27.129Z,1014.91
2018-11-29T17:14:27.100Z,1014.95
2018-11-29T17:15:27.075Z,1014.98
2018-11-29T17:16:27.085Z,1014.90
2018-11-29T17:17:27.046Z,1014.80
2018-11-29T17:18:27.047Z,1014.93
2018-11-29T17:19:27.031Z,1014.80
2018-11-29T17:20:27.071Z,1014.93
2018-11-29T17:21:27.020Z,1014.77
2018-11-29T17:22:27.016Z,1014.86
2018-11-29T17:23:26.998Z,1014.86
2018-11-29T17:24:27.023Z,1014.78
2018-11-29T17:25:26.958Z,1014.85
2018-11-29T17:26:26.970Z,1014.89
2018-11-29T17:27:26.952Z,1014.79
2018-11-29T17:28:26.931Z,1014.91
2018-11-29T17:29:26.937Z,1014.62
2018-11-29T17:30:26.899Z,1014.62
2018-11-29T17:31:26.935Z,1014.73
2018-11-29T17:32:26.883Z,1014.71
2018-11-29T17:33:26.884Z,1014.77
2018-11-29T17:34:26.863Z,1014.76
2018-11-29T17:35:26.915Z,1014.78
2018-11-29T17:36:26.857Z,1014.67
2018-11-29T17:37:26.836Z,1014.87
2018-11-29T17:38:26.824Z,1014.70
2018-11-29T17:39:27.385Z,1014.74
2018-11-29T17:40:26.826Z,1014.79
2018-11-29T17:41:26.843Z,1014.75
2018-11-29T17:42:27.881Z,1014.69
2018-11-29T17:43:26.781Z,1014.70
2018-11-29T17:44:27.393Z,1014.67
2018-11-29T17:45:26.747Z,1014.57